Time,TemperatureF,DewpointF,PressureIn,WindDirection,WindDirectionDegrees,WindSpeedMPH,WindSpeedGustMPH,Humidity,HourlyPrecipIn,Conditions,Clouds,dailyrainin,SoftwareType,DateUTC
2013-07-11 00:42:00,76.0,71.0,30.04,SW,228,0.0,0.0,85,0.00,,,0.31,,2013-07-11 04:42:00,
2013-07-11 01:12:00,76.0,72.0,30.04,SW,228,0.0,0.0,86,0.00,,,0.31,,2013-07-11 05:12:00,
2013-07-11 01:43:00,76.0,72.0,30.03,SW,228,0.0,0.0,88,0.00,,,0.31,,2013-07-11 05:43:00,
2013-07-11 01:52:00,76.0,72.0,30.03,SW,228,0.0,0.0,88,0.00,,,0.31,,2013-07-11 05:52:00,
2013-07-11 02:12:00,76.0,73.0,30.03,SW,228,0.0,0.0,89,0.00,,,0.31,,2013-07-11 06:12:00,
2013-07-11 02:22:00,76.0,73.0,30.02,SW,228,0.0,0.0,89,0.00,,,0.31,,2013-07-11 06:22:00,
2013-07-11 02:32:00,76.0,73.0,30.02,SW,228,0.0,0.0,89,0.00,,,0.31,,2013-07-11 06:32:00,
2013-07-11 02:43:00,76.0,73.0,30.02,SW,228,0.0,0.0,89,0.00,,,0.31,,2013-07-11 06:43:00,
2013-07-11 02:52:00,76.0,73.0,30.01,SW,228,0.0,0.0,89,0.00,,,0.31,,2013-07-11 06:52:00,
2013-07-11 03:02:00,76.0,73.0,30.01,SW,228,0.0,0.0,89,0.00,,,0.31,,2013-07-11 07:02:00,
2013-07-11 03:12:00,75.0,72.0,30.01,SW,228,0.0,0.0,89,0.00,,,0.31,,2013-07-11 07:12:00,
2013-07-11 03:22:00,75.0,72.0,30.01,SW,228,0.0,0.0,90,0.00,,,0.31,,2013-07-11 07:22:00,
2013-07-11 03:32:00,75.0,72.0,30.00,SW,228,0.0,0.0,91,0.00,,,0.31,,2013-07-11 07:32:00,
2013-07-11 03:45:00,75.0,72.0,30.00,SW,228,0.0,0.0,91,0.00,,,0.31,,2013-07-11 07:45:00,
2013-07-11 03:53:00,75.0,72.0,30.00,SW,228,0.0,0.0,91,0.00,,,0.31,,2013-07-11 07:53:00,
2013-07-11 04:02:00,75.0,73.0,30.01,ESE,115,0.0,0.0,92,0.00,,,0.31,,2013-07-11 08:02:00,
2013-07-11 04:12:00,75.0,73.0,30.01,ESE,115,0.0,0.0,92,0.00,,,0.31,,2013-07-11 08:12:00,
2013-07-11 04:22:00,75.0,73.0,30.01,ESE,115,0.0,0.0,93,0.00,,,0.31,,2013-07-11 08:22:00,
2013-07-11 04:34:00,75.0,73.0,30.01,ESE,115,0.0,0.0,95,0.00,,,0.31,,2013-07-11 08:34:00,
2013-07-11 04:43:00,75.0,73.0,30.01,ESE,115,0.0,0.0,95,0.00,,,0.31,,2013-07-11 08:43:00,
2013-07-11 05:03:00,74.0,73.0,30.00,ESE,115,0.0,0.0,96,0.00,,,0.31,,2013-07-11 09:03:00,
2013-07-11 05:12:00,75.0,74.0,30.00,ESE,115,0.0,0.0,96,0.00,,,0.31,,2013-07-11 09:12:00,
2013-07-11 05:43:00,74.0,73.0,30.00,ESE,115,0.0,0.0,97,0.00,,,0.31,,2013-07-11 09:43:00,
2013-07-11 05:53:00,75.0,74.0,30.00,ESE,115,0.0,0.0,97,0.00,,,0.31,,2013-07-11 09:53:00,
2013-07-11 06:33:00,74.0,73.0,30.01,ESE,115,0.0,0.0,97,0.00,,,0.31,,2013-07-11 10:33:00,
2013-07-11 06:43:00,74.0,73.0,30.01,ESE,115,0.0,0.0,97,0.00,,,0.31,,2013-07-11 10:43:00,
2013-07-11 06:52:00,74.0,73.0,30.01,ESE,115,0.0,0.0,97,0.00,,,0.31,,2013-07-11 10:52:00,
2013-07-11 07:32:00,74.0,73.0,30.02,ESE,115,0.0,0.0,97,0.00,,,0.31,,2013-07-11 11:32:00,
2013-07-11 07:53:00,74.0,74.0,30.02,ESE,115,0.0,0.0,99,0.00,,,0.31,,2013-07-11 11:53:00,
2013-07-11 08:01:00,75.0,75.0,30.02,ESE,115,0.0,0.0,100,0.00,,,0.31,,2013-07-11 12:01:00,
2013-07-11 08:33:00,78.0,77.0,30.01,North,359,0.0,0.0,96,0.00,,,0.31,,2013-07-11 12:33:00,
2013-07-11 09:02:00,81.0,75.0,30.01,ESE,115,0.0,3.0,82,0.00,,,0.31,,2013-07-11 13:02:00,
2013-07-11 10:05:00,83.0,73.0,30.02,SW,217,0.0,0.0,72,0.00,,,0.31,,2013-07-11 14:05:00,
2013-07-11 10:15:00,83.0,73.0,30.02,SW,217,0.0,0.0,71,0.00,,,0.31,,2013-07-11 14:15:00,
2013-07-11 10:24:00,83.0,73.0,30.02,SW,217,0.0,0.0,72,0.00,,,0.31,,2013-07-11 14:24:00,
2013-07-11 10:45:00,84.0,73.0,30.01,SW,217,0.0,0.0,70,0.00,,,0.31,,2013-07-11 14:45:00,
2013-07-11 11:05:00,84.0,72.0,30.02,SW,217,0.0,0.0,67,0.00,,,0.31,,2013-07-11 15:05:00,
2013-07-11 11:13:00,85.0,73.0,30.01,SW,217,0.0,0.0,67,0.00,,,0.31,,2013-07-11 15:13:00,
2013-07-11 11:37:00,84.0,71.0,30.01,North,359,0.0,0.0,66,0.00,,,0.31,,2013-07-11 15:37:00,
2013-07-11 12:35:00,86.0,70.0,30.01,SSE,166,1.0,6.0,60,0.00,,,0.31,,2013-07-11 16:35:00,
2013-07-11 12:46:00,86.0,71.0,30.01,SSW,201,0.0,0.0,61,0.00,,,0.31,,2013-07-11 16:46:00,
2013-07-11 12:54:00,86.0,71.0,30.00,SSW,201,0.0,0.0,62,0.00,,,0.31,,2013-07-11 16:54:00,
2013-07-11 13:38:00,87.0,70.0,29.99,SSW,205,3.0,6.0,58,0.00,,,0.31,,2013-07-11 17:38:00,
2013-07-11 13:52:00,86.0,71.0,29.98,SW,229,0.0,0.0,61,0.00,,,0.31,,2013-07-11 17:52:00,
2013-07-11 14:05:00,87.0,72.0,29.98,SW,229,0.0,0.0,62,0.00,,,0.31,,2013-07-11 18:05:00,
2013-07-11 14:45:00,89.0,72.0,29.96,South,183,0.0,0.0,57,0.00,,,0.31,,2013-07-11 18:45:00,
2013-07-11 15:56:00,92.0,68.0,29.94,SSW,211,0.0,0.0,46,0.00,,,0.31,,2013-07-11 19:56:00,
2013-07-11 16:37:00,91.0,67.0,29.93,North,359,0.0,0.0,46,0.00,,,0.31,,2013-07-11 20:37:00,
2013-07-11 16:46:00,91.0,69.0,29.92,North,10,2.0,0.0,49,0.00,,,0.31,,2013-07-11 20:46:00,
2013-07-11 16:53:00,91.0,69.0,29.93,South,170,0.0,0.0,48,0.00,,,0.31,,2013-07-11 20:53:00,
2013-07-11 17:15:00,87.0,71.0,29.93,North,359,0.0,4.0,59,0.00,,,0.31,,2013-07-11 21:15:00,
2013-07-11 17:45:00,83.0,72.0,29.94,North,359,0.0,0.0,69,0.00,,,0.31,,2013-07-11 21:45:00,
2013-07-11 18:05:00,83.0,72.0,29.93,North,359,0.0,0.0,69,0.00,,,0.31,,2013-07-11 22:05:00,
2013-07-11 18:46:00,83.0,69.0,29.95,SSW,197,1.0,2.0,63,0.00,,,0.31,,2013-07-11 22:46:00,
2013-07-11 18:54:00,84.0,70.0,29.95,SSW,197,0.0,0.0,63,0.00,,,0.31,,2013-07-11 22:54:00,
2013-07-11 19:06:00,84.0,70.0,29.94,SSW,197,0.0,0.0,64,0.00,,,0.31,,2013-07-11 23:06:00,
2013-07-11 19:13:00,84.0,70.0,29.93,SSW,197,0.0,0.0,64,0.00,,,0.31,,2013-07-11 23:13:00,
2013-07-11 19:35:00,84.0,71.0,29.94,SE,135,0.0,3.0,65,0.00,,,0.31,,2013-07-11 23:35:00,
2013-07-11 19:46:00,82.0,71.0,29.94,East,87,0.0,0.0,70,0.00,,,0.31,,2013-07-11 23:46:00,
2013-07-11 19:55:00,81.0,71.0,29.95,ESE,103,1.0,1.0,71,0.00,,,0.31,,2013-07-11 23:55:00,
2013-07-11 20:05:00,80.0,70.0,29.94,SE,127,0.0,0.0,72,0.00,,,0.31,,2013-07-12 00:05:00,
2013-07-11 20:14:00,80.0,70.0,29.94,SE,127,0.0,0.0,72,0.00,,,0.31,,2013-07-12 00:14:00,
2013-07-11 20:25:00,80.0,71.0,29.94,North,359,1.0,0.0,75,0.00,,,0.31,,2013-07-12 00:25:00,
2013-07-11 20:36:00,79.0,71.0,29.94,ENE,69,0.0,0.0,76,0.00,,,0.31,,2013-07-12 00:36:00,
2013-07-11 20:44:00,79.0,71.0,29.95,ENE,69,0.0,0.0,76,0.00,,,0.31,,2013-07-12 00:44:00,
2013-07-11 20:58:00,79.0,71.0,29.94,SSW,193,0.0,0.0,77,0.00,,,0.31,,2013-07-12 00:58:00,
2013-07-11 21:13:00,79.0,72.0,29.96,SSW,193,0.0,0.0,78,0.00,,,0.31,,2013-07-12 01:13:00,
2013-07-11 21:26:00,79.0,72.0,29.96,SSW,193,0.0,0.0,78,0.00,,,0.31,,2013-07-12 01:26:00,
2013-07-11 21:46:00,79.0,72.0,29.96,SSW,193,0.0,0.0,79,0.00,,,0.31,,2013-07-12 01:46:00,
2013-07-11 22:16:00,78.0,71.0,29.96,SSW,193,0.0,0.0,80,0.00,,,0.31,,2013-07-12 02:16:00,
2013-07-11 23:37:00,77.0,72.0,29.96,East,87,0.0,0.0,85,0.00,,,0.31,,2013-07-12 03:37:00,
2013-07-11 23:54:00,77.0,72.0,29.96,East,91,0.0,0.0,85,0.00,,,0.31,,2013-07-12 03:54:00,